sensor_id;sensor_type;location;lat;lon;timestamp;P1;durP1;ratioP1;P2;durP2;ratioP2
74656;SDS011;63185;45.642;13.764;2023-02-25T00:01:08;41.58;;;24.63;;
74656;SDS011;63185;45.642;13.764;2023-02-25T00:03:36;48.45;;;25.20;;
74656;SDS011;63185;45.642;13.764;2023-02-25T00:06:02;41.03;;;24.15;;
74656;SDS011;63185;45.642;13.764;2023-02-25T00:08:29;40.17;;;24.55;;
74656;SDS011;63185;45.642;13.764;2023-02-25T00:10:59;44.88;;;25.98;;
74656;SDS011;63185;45.642;13.764;2023-02-25T00:13:27;41.67;;;25.10;;
74656;SDS011;63185;45.642;13.764;2023-02-25T00:15:53;41.10;;;23.60;;
74656;SDS011;63185;45.642;13.764;2023-02-25T00:18:22;39.83;;;25.10;;
74656;SDS011;63185;45.642;13.764;2023-02-25T00:20:49;45.35;;;25.17;;
74656;SDS011;63185;45.642;13.764;2023-02-25T00:23:14;46.05;;;24.85;;
74656;SDS011;63185;45.642;13.764;2023-02-25T00:25:40;42.95;;;24.30;;
74656;SDS011;63185;45.642;13.764;2023-02-25T00:28:06;45.35;;;24.35;;
74656;SDS011;63185;45.642;13.764;2023-02-25T00:30:32;44.85;;;25.65;;
74656;SDS011;63185;45.642;13.764;2023-02-25T00:32:58;42.22;;;24.10;;
74656;SDS011;63185;45.642;13.764;2023-02-25T00:35:24;41.53;;;24.15;;
74656;SDS011;63185;45.642;13.764;2023-02-25T00:37:51;42.35;;;23.60;;
74656;SDS011;63185;45.642;13.764;2023-02-25T00:40:17;41.95;;;23.70;;
74656;SDS011;63185;45.642;13.764;2023-02-25T00:42:42;41.00;;;23.00;;
74656;SDS011;63185;45.642;13.764;2023-02-25T00:45:09;39.55;;;23.23;;
74656;SDS011;63185;45.642;13.764;2023-02-25T00:47:36;40.65;;;23.13;;
74656;SDS011;63185;45.642;13.764;2023-02-25T00:50:02;44.60;;;22.77;;
74656;SDS011;63185;45.642;13.764;2023-02-25T00:52:29;38.55;;;22.73;;
74656;SDS011;63185;45.642;13.764;2023-02-25T00:54:56;37.35;;;22.20;;
74656;SDS011;63185;45.642;13.764;2023-02-25T00:57:22;40.30;;;21.48;;
74656;SDS011;63185;45.642;13.764;2023-02-25T00:59:48;33.85;;;21.38;;
74656;SDS011;63185;45.642;13.764;2023-02-25T01:02:14;35.38;;;19.77;;
74656;SDS011;63185;45.642;13.764;2023-02-25T01:04:40;35.20;;;20.00;;
74656;SDS011;63185;45.642;13.764;2023-02-25T01:07:06;39.20;;;21.05;;
74656;SDS011;63185;45.642;13.764;2023-02-25T01:09:31;34.95;;;20.42;;
74656;SDS011;63185;45.642;13.764;2023-02-25T01:11:57;39.88;;;20.67;;
74656;SDS011;63185;45.642;13.764;2023-02-25T01:14:24;33.72;;;19.20;;
74656;SDS011;63185;45.642;13.764;2023-02-25T01:16:50;36.88;;;20.63;;
74656;SDS011;63185;45.642;13.764;2023-02-25T01:19:18;34.60;;;20.30;;
74656;SDS011;63185;45.642;13.764;2023-02-25T01:21:47;33.30;;;19.67;;
74656;SDS011;63185;45.642;13.764;2023-02-25T01:24:20;37.53;;;18.90;;
74656;SDS011;63185;45.642;13.764;2023-02-25T01:26:48;33.50;;;19.20;;
74656;SDS011;63185;45.642;13.764;2023-02-25T01:29:16;39.53;;;20.45;;
74656;SDS011;63185;45.642;13.764;2023-02-25T01:31:48;35.45;;;20.95;;
74656;SDS011;63185;45.642;13.764;2023-02-25T01:34:16;32.63;;;19.65;;
74656;SDS011;63185;45.642;13.764;2023-02-25T01:36:44;33.75;;;19.55;;
74656;SDS011;63185;45.642;13.764;2023-02-25T01:39:11;34.05;;;20.27;;
74656;SDS011;63185;45.642;13.764;2023-02-25T01:41:37;36.90;;;19.45;;
74656;SDS011;63185;45.642;13.764;2023-02-25T01:46:41;32.40;;;19.05;;
74656;SDS011;63185;45.642;13.764;2023-02-25T01:51:43;32.80;;;18.67;;
74656;SDS011;63185;45.642;13.764;2023-02-25T01:54:10;35.00;;;18.70;;
74656;SDS011;63185;45.642;13.764;2023-02-25T01:56:37;33.70;;;18.90;;
74656;SDS011;63185;45.642;13.764;2023-02-25T01:59:05;33.27;;;13.90;;
74656;SDS011;63185;45.642;13.764;2023-02-25T02:01:32;38.72;;;19.30;;
74656;SDS011;63185;45.642;13.764;2023-02-25T02:04:01;36.65;;;19.48;;
74656;SDS011;63185;45.642;13.764;2023-02-25T02:06:35;36.63;;;18.93;;
74656;SDS011;63185;45.642;13.764;2023-02-25T02:09:07;32.70;;;18.50;;
74656;SDS011;63185;45.642;13.764;2023-02-25T02:11:37;38.78;;;18.52;;
74656;SDS011;63185;45.642;13.764;2023-02-25T02:14:03;33.40;;;17.13;;
74656;SDS011;63185;45.642;13.764;2023-02-25T02:22:24;33.22;;;16.85;;
74656;SDS011;63185;45.642;13.764;2023-02-25T02:38:59;36.92;;;18.55;;
74656;SDS011;63185;45.642;13.764;2023-02-25T02:41:33;37.83;;;18.95;;
74656;SDS011;63185;45.642;13.764;2023-02-25T02:46:35;49.63;;;19.40;;
74656;SDS011;63185;45.642;13.764;2023-02-25T02:49:12;34.35;;;17.30;;
74656;SDS011;63185;45.642;13.764;2023-02-25T02:51:44;33.50;;;17.23;;
74656;SDS011;63185;45.642;13.764;2023-02-25T02:54:21;32.22;;;18.02;;
74656;SDS011;63185;45.642;13.764;2023-02-25T02:56:49;34.97;;;18.33;;
74656;SDS011;63185;45.642;13.764;2023-02-25T03:02:06;41.10;;;19.50;;
74656;SDS011;63185;45.642;13.764;2023-02-25T03:04:38;41.45;;;20.50;;
74656;SDS011;63185;45.642;13.764;2023-02-25T03:07:08;40.92;;;22.20;;
74656;SDS011;63185;45.642;13.764;2023-02-25T03:09:49;41.00;;;21.93;;
74656;SDS011;63185;45.642;13.764;2023-02-25T03:12:18;36.10;;;19.90;;
74656;SDS011;63185;45.642;13.764;2023-02-25T03:14:44;35.45;;;19.73;;
74656;SDS011;63185;45.642;13.764;2023-02-25T03:17:13;41.00;;;20.13;;
74656;SDS011;63185;45.642;13.764;2023-02-25T03:20:03;38.22;;;20.60;;
74656;SDS011;63185;45.642;13.764;2023-02-25T03:22:38;41.33;;;22.75;;
74656;SDS011;63185;45.642;13.764;2023-02-25T03:27:46;40.67;;;22.80;;
74656;SDS011;63185;45.642;13.764;2023-02-25T03:32:58;44.78;;;24.10;;
74656;SDS011;63185;45.642;13.764;2023-02-25T03:35:46;42.90;;;23.80;;
74656;SDS011;63185;45.642;13.764;2023-02-25T03:38:15;48.22;;;25.58;;
74656;SDS011;63185;45.642;13.764;2023-02-25T03:40:44;55.67;;;30.50;;
74656;SDS011;63185;45.642;13.764;2023-02-25T03:43:15;51.45;;;28.80;;
74656;SDS011;63185;45.642;13.764;2023-02-25T03:45:45;49.00;;;25.25;;
74656;SDS011;63185;45.642;13.764;2023-02-25T03:48:12;44.95;;;24.15;;
74656;SDS011;63185;45.642;13.764;2023-02-25T03:50:52;44.22;;;24.63;;
74656;SDS011;63185;45.642;13.764;2023-02-25T03:53:23;44.40;;;23.50;;
74656;SDS011;63185;45.642;13.764;2023-02-25T03:55:50;48.92;;;25.13;;
74656;SDS011;63185;45.642;13.764;2023-02-25T03:58:16;46.88;;;25.17;;
74656;SDS011;63185;45.642;13.764;2023-02-25T04:00:42;48.55;;;24.10;;
74656;SDS011;63185;45.642;13.764;2023-02-25T04:03:11;49.53;;;28.15;;
74656;SDS011;63185;45.642;13.764;2023-02-25T04:05:37;46.08;;;25.48;;
74656;SDS011;63185;45.642;13.764;2023-02-25T04:08:03;47.92;;;24.85;;
74656;SDS011;63185;45.642;13.764;2023-02-25T04:10:40;48.55;;;24.92;;
74656;SDS011;63185;45.642;13.764;2023-02-25T04:13:08;45.63;;;24.73;;
74656;SDS011;63185;45.642;13.764;2023-02-25T04:15:35;42.47;;;23.65;;
74656;SDS011;63185;45.642;13.764;2023-02-25T04:18:01;44.25;;;22.58;;
74656;SDS011;63185;45.642;13.764;2023-02-25T04:20:27;34.83;;;18.50;;
74656;SDS011;63185;45.642;13.764;2023-02-25T04:22:57;45.65;;;20.38;;
74656;SDS011;63185;45.642;13.764;2023-02-25T04:25:23;41.38;;;18.00;;
74656;SDS011;63185;45.642;13.764;2023-02-25T04:27:49;44.40;;;18.20;;
74656;SDS011;63185;45.642;13.764;2023-02-25T04:30:15;41.08;;;17.92;;
74656;SDS011;63185;45.642;13.764;2023-02-25T04:32:41;40.10;;;17.58;;
74656;SDS011;63185;45.642;13.764;2023-02-25T04:35:07;43.47;;;18.15;;
74656;SDS011;63185;45.642;13.764;2023-02-25T04:37:36;37.55;;;17.35;;
74656;SDS011;63185;45.642;13.764;2023-02-25T04:40:03;37.50;;;16.52;;
74656;SDS011;63185;45.642;13.764;2023-02-25T04:42:35;38.80;;;16.15;;
74656;SDS011;63185;45.642;13.764;2023-02-25T04:45:02;36.60;;;16.98;;
74656;SDS011;63185;45.642;13.764;2023-02-25T04:47:28;39.40;;;17.60;;
74656;SDS011;63185;45.642;13.764;2023-02-25T04:49:53;47.50;;;20.83;;
74656;SDS011;63185;45.642;13.764;2023-02-25T04:52:19;51.53;;;23.25;;
74656;SDS011;63185;45.642;13.764;2023-02-25T04:54:46;47.75;;;24.83;;
74656;SDS011;63185;45.642;13.764;2023-02-25T04:57:11;51.45;;;24.98;;
74656;SDS011;63185;45.642;13.764;2023-02-25T04:59:38;55.78;;;23.58;;
74656;SDS011;63185;45.642;13.764;2023-02-25T05:02:04;52.45;;;22.42;;
74656;SDS011;63185;45.642;13.764;2023-02-25T05:04:31;49.40;;;20.83;;
74656;SDS011;63185;45.642;13.764;2023-02-25T05:06:58;43.25;;;17.98;;
74656;SDS011;63185;45.642;13.764;2023-02-25T05:09:25;45.28;;;17.33;;
74656;SDS011;63185;45.642;13.764;2023-02-25T05:11:51;45.83;;;16.80;;
74656;SDS011;63185;45.642;13.764;2023-02-25T05:14:17;49.92;;;16.38;;
74656;SDS011;63185;45.642;13.764;2023-02-25T05:16:43;47.50;;;15.35;;
74656;SDS011;63185;45.642;13.764;2023-02-25T05:19:13;40.08;;;15.88;;
74656;SDS011;63185;45.642;13.764;2023-02-25T05:21:43;48.67;;;16.75;;
74656;SDS011;63185;45.642;13.764;2023-02-25T05:24:09;39.78;;;15.95;;
74656;SDS011;63185;45.642;13.764;2023-02-25T05:26:36;51.85;;;16.77;;
74656;SDS011;63185;45.642;13.764;2023-02-25T05:29:02;48.40;;;17.20;;
74656;SDS011;63185;45.642;13.764;2023-02-25T05:31:28;50.38;;;15.30;;
74656;SDS011;63185;45.642;13.764;2023-02-25T05:33:54;45.03;;;15.88;;
74656;SDS011;63185;45.642;13.764;2023-02-25T05:36:20;47.80;;;15.57;;
74656;SDS011;63185;45.642;13.764;2023-02-25T05:38:46;40.03;;;16.17;;
74656;SDS011;63185;45.642;13.764;2023-02-25T05:41:12;44.13;;;15.55;;
74656;SDS011;63185;45.642;13.764;2023-02-25T05:43:38;43.05;;;15.57;;
74656;SDS011;63185;45.642;13.764;2023-02-25T05:46:04;37.47;;;15.52;;
74656;SDS011;63185;45.642;13.764;2023-02-25T05:48:35;38.17;;;15.07;;
74656;SDS011;63185;45.642;13.764;2023-02-25T05:51:04;36.75;;;14.40;;
74656;SDS011;63185;45.642;13.764;2023-02-25T05:53:32;40.10;;;15.98;;
74656;SDS011;63185;45.642;13.764;2023-02-25T05:55:58;43.00;;;15.15;;
74656;SDS011;63185;45.642;13.764;2023-02-25T05:58:27;53.05;;;15.82;;
74656;SDS011;63185;45.642;13.764;2023-02-25T06:00:52;52.17;;;17.70;;
74656;SDS011;63185;45.642;13.764;2023-02-25T06:03:18;46.47;;;17.67;;
74656;SDS011;63185;45.642;13.764;2023-02-25T06:05:44;44.70;;;17.40;;
74656;SDS011;63185;45.642;13.764;2023-02-25T06:08:09;45.95;;;18.00;;
74656;SDS011;63185;45.642;13.764;2023-02-25T06:10:35;52.65;;;18.00;;
74656;SDS011;63185;45.642;13.764;2023-02-25T06:13:06;50.65;;;18.27;;
74656;SDS011;63185;45.642;13.764;2023-02-25T06:15:33;56.97;;;18.95;;
74656;SDS011;63185;45.642;13.764;2023-02-25T06:18:01;51.00;;;19.63;;
74656;SDS011;63185;45.642;13.764;2023-02-25T06:20:27;45.78;;;18.13;;
74656;SDS011;63185;45.642;13.764;2023-02-25T06:22:53;45.97;;;18.70;;
74656;SDS011;63185;45.642;13.764;2023-02-25T06:25:18;50.92;;;19.15;;
74656;SDS011;63185;45.642;13.764;2023-02-25T06:27:44;45.42;;;19.95;;
74656;SDS011;63185;45.642;13.764;2023-02-25T06:30:10;49.25;;;21.63;;
74656;SDS011;63185;45.642;13.764;2023-02-25T06:32:37;42.47;;;20.85;;
74656;SDS011;63185;45.642;13.764;2023-02-25T06:35:03;49.67;;;20.40;;
74656;SDS011;63185;45.642;13.764;2023-02-25T06:37:30;54.63;;;20.90;;
74656;SDS011;63185;45.642;13.764;2023-02-25T06:39:56;53.15;;;21.77;;
74656;SDS011;63185;45.642;13.764;2023-02-25T06:42:22;41.13;;;21.55;;
74656;SDS011;63185;45.642;13.764;2023-02-25T06:44:48;58.75;;;25.27;;
74656;SDS011;63185;45.642;13.764;2023-02-25T06:47:13;49.08;;;24.08;;
74656;SDS011;63185;45.642;13.764;2023-02-25T06:49:39;51.67;;;23.85;;
74656;SDS011;63185;45.642;13.764;2023-02-25T06:52:05;50.40;;;24.35;;
74656;SDS011;63185;45.642;13.764;2023-02-25T06:54:31;53.70;;;23.92;;
74656;SDS011;63185;45.642;13.764;2023-02-25T06:56:56;48.30;;;24.42;;
74656;SDS011;63185;45.642;13.764;2023-02-25T06:59:22;48.17;;;23.98;;
74656;SDS011;63185;45.642;13.764;2023-02-25T07:01:48;53.50;;;25.67;;
74656;SDS011;63185;45.642;13.764;2023-02-25T07:04:14;51.78;;;25.80;;
74656;SDS011;63185;45.642;13.764;2023-02-25T07:06:41;57.38;;;27.13;;
74656;SDS011;63185;45.642;13.764;2023-02-25T07:09:07;58.10;;;27.55;;
74656;SDS011;63185;45.642;13.764;2023-02-25T07:11:33;57.45;;;27.83;;
74656;SDS011;63185;45.642;13.764;2023-02-25T07:14:00;51.28;;;26.05;;
74656;SDS011;63185;45.642;13.764;2023-02-25T07:16:27;55.50;;;28.00;;
74656;SDS011;63185;45.642;13.764;2023-02-25T07:18:54;54.13;;;28.55;;
74656;SDS011;63185;45.642;13.764;2023-02-25T07:21:20;57.92;;;28.77;;
74656;SDS011;63185;45.642;13.764;2023-02-25T07:23:47;56.67;;;28.98;;
74656;SDS011;63185;45.642;13.764;2023-02-25T07:26:13;49.55;;;28.20;;
74656;SDS011;63185;45.642;13.764;2023-02-25T07:28:39;51.50;;;27.40;;
74656;SDS011;63185;45.642;13.764;2023-02-25T07:31:09;51.42;;;28.35;;
74656;SDS011;63185;45.642;13.764;2023-02-25T07:33:38;51.45;;;28.40;;
74656;SDS011;63185;45.642;13.764;2023-02-25T07:36:06;52.25;;;27.80;;
74656;SDS011;63185;45.642;13.764;2023-02-25T07:38:32;46.50;;;26.27;;
74656;SDS011;63185;45.642;13.764;2023-02-25T07:41:08;54.30;;;28.88;;
74656;SDS011;63185;45.642;13.764;2023-02-25T07:43:35;53.05;;;28.65;;
74656;SDS011;63185;45.642;13.764;2023-02-25T07:46:01;50.67;;;26.77;;
74656;SDS011;63185;45.642;13.764;2023-02-25T07:48:28;48.60;;;25.88;;
74656;SDS011;63185;45.642;13.764;2023-02-25T07:50:54;47.92;;;25.15;;
74656;SDS011;63185;45.642;13.764;2023-02-25T07:53:20;53.25;;;26.95;;
74656;SDS011;63185;45.642;13.764;2023-02-25T07:55:47;48.72;;;25.70;;
74656;SDS011;63185;45.642;13.764;2023-02-25T07:58:13;50.50;;;25.73;;
74656;SDS011;63185;45.642;13.764;2023-02-25T08:00:39;50.63;;;24.90;;
74656;SDS011;63185;45.642;13.764;2023-02-25T08:03:06;52.45;;;25.30;;
74656;SDS011;63185;45.642;13.764;2023-02-25T08:05:33;51.55;;;25.75;;
74656;SDS011;63185;45.642;13.764;2023-02-25T08:07:59;51.25;;;24.77;;
74656;SDS011;63185;45.642;13.764;2023-02-25T08:10:25;55.40;;;26.15;;
74656;SDS011;63185;45.642;13.764;2023-02-25T08:12:50;55.28;;;26.15;;
74656;SDS011;63185;45.642;13.764;2023-02-25T08:15:16;52.33;;;26.35;;
74656;SDS011;63185;45.642;13.764;2023-02-25T08:17:42;47.00;;;25.95;;
74656;SDS011;63185;45.642;13.764;2023-02-25T08:20:08;54.83;;;27.60;;
74656;SDS011;63185;45.642;13.764;2023-02-25T08:22:34;48.30;;;26.65;;
74656;SDS011;63185;45.642;13.764;2023-02-25T08:25:00;53.58;;;26.65;;
74656;SDS011;63185;45.642;13.764;2023-02-25T08:27:26;47.78;;;25.25;;
74656;SDS011;63185;45.642;13.764;2023-02-25T08:29:52;57.83;;;26.33;;
74656;SDS011;63185;45.642;13.764;2023-02-25T08:32:18;60.05;;;27.10;;
74656;SDS011;63185;45.642;13.764;2023-02-25T08:34:43;56.13;;;27.25;;
74656;SDS011;63185;45.642;13.764;2023-02-25T08:37:09;53.63;;;26.13;;
74656;SDS011;63185;45.642;13.764;2023-02-25T08:39:35;47.92;;;26.95;;
74656;SDS011;63185;45.642;13.764;2023-02-25T08:42:02;49.92;;;26.13;;
74656;SDS011;63185;45.642;13.764;2023-02-25T08:44:28;53.28;;;27.48;;
74656;SDS011;63185;45.642;13.764;2023-02-25T08:46:53;53.55;;;26.75;;
74656;SDS011;63185;45.642;13.764;2023-02-25T08:49:19;52.13;;;26.95;;
74656;SDS011;63185;45.642;13.764;2023-02-25T08:51:45;49.35;;;27.20;;
74656;SDS011;63185;45.642;13.764;2023-02-25T08:56:40;52.15;;;26.27;;
74656;SDS011;63185;45.642;13.764;2023-02-25T08:59:09;48.13;;;26.23;;
74656;SDS011;63185;45.642;13.764;2023-02-25T09:01:36;53.08;;;27.13;;
74656;SDS011;63185;45.642;13.764;2023-02-25T09:04:15;51.08;;;26.65;;
74656;SDS011;63185;45.642;13.764;2023-02-25T09:06:43;45.88;;;23.98;;
74656;SDS011;63185;45.642;13.764;2023-02-25T09:09:13;49.28;;;25.77;;
74656;SDS011;63185;45.642;13.764;2023-02-25T09:11:43;50.15;;;26.00;;
74656;SDS011;63185;45.642;13.764;2023-02-25T09:14:09;48.38;;;24.75;;
74656;SDS011;63185;45.642;13.764;2023-02-25T09:16:35;49.88;;;26.13;;
74656;SDS011;63185;45.642;13.764;2023-02-25T09:19:01;52.63;;;25.98;;
74656;SDS011;63185;45.642;13.764;2023-02-25T09:21:27;43.97;;;25.25;;
74656;SDS011;63185;45.642;13.764;2023-02-25T09:23:53;50.58;;;26.00;;
74656;SDS011;63185;45.642;13.764;2023-02-25T09:26:19;48.58;;;25.00;;
74656;SDS011;63185;45.642;13.764;2023-02-25T09:28:45;52.17;;;26.30;;
74656;SDS011;63185;45.642;13.764;2023-02-25T09:31:12;46.00;;;24.88;;
74656;SDS011;63185;45.642;13.764;2023-02-25T09:33:39;47.33;;;23.60;;
74656;SDS011;63185;45.642;13.764;2023-02-25T09:36:11;47.10;;;23.65;;
74656;SDS011;63185;45.642;13.764;2023-02-25T09:38:38;45.63;;;22.55;;
74656;SDS011;63185;45.642;13.764;2023-02-25T09:44:05;42.15;;;22.60;;
74656;SDS011;63185;45.642;13.764;2023-02-25T09:46:39;46.88;;;23.02;;
74656;SDS011;63185;45.642;13.764;2023-02-25T09:52:02;47.60;;;22.90;;
74656;SDS011;63185;45.642;13.764;2023-02-25T09:54:31;41.55;;;22.50;;
74656;SDS011;63185;45.642;13.764;2023-02-25T09:57:02;38.72;;;20.17;;
74656;SDS011;63185;45.642;13.764;2023-02-25T09:59:30;38.47;;;20.60;;
74656;SDS011;63185;45.642;13.764;2023-02-25T10:02:01;36.72;;;18.95;;
74656;SDS011;63185;45.642;13.764;2023-02-25T10:07:25;41.78;;;17.73;;
74656;SDS011;63185;45.642;13.764;2023-02-25T10:10:10;35.70;;;17.38;;
74656;SDS011;63185;45.642;13.764;2023-02-25T10:12:52;35.17;;;17.55;;
74656;SDS011;63185;45.642;13.764;2023-02-25T10:15:36;36.33;;;16.67;;
74656;SDS011;63185;45.642;13.764;2023-02-25T10:24:02;28.13;;;15.07;;
74656;SDS011;63185;45.642;13.764;2023-02-25T10:26:37;30.65;;;14.50;;
74656;SDS011;63185;45.642;13.764;2023-02-25T10:29:09;24.92;;;12.95;;
74656;SDS011;63185;45.642;13.764;2023-02-25T10:31:53;28.17;;;12.90;;
74656;SDS011;63185;45.642;13.764;2023-02-25T10:34:23;24.95;;;12.35;;
74656;SDS011;63185;45.642;13.764;2023-02-25T10:36:53;26.35;;;12.07;;
74656;SDS011;63185;45.642;13.764;2023-02-25T10:39:20;25.40;;;11.27;;
74656;SDS011;63185;45.642;13.764;2023-02-25T10:41:46;22.77;;;11.40;;
74656;SDS011;63185;45.642;13.764;2023-02-25T10:44:13;24.08;;;11.95;;
74656;SDS011;63185;45.642;13.764;2023-02-25T10:46:58;26.25;;;12.02;;
74656;SDS011;63185;45.642;13.764;2023-02-25T10:49:27;21.45;;;11.65;;
74656;SDS011;63185;45.642;13.764;2023-02-25T10:54:28;27.10;;;11.82;;
74656;SDS011;63185;45.642;13.764;2023-02-25T10:56:59;29.80;;;11.98;;
74656;SDS011;63185;45.642;13.764;2023-02-25T10:59:36;23.52;;;10.90;;
74656;SDS011;63185;45.642;13.764;2023-02-25T11:02:17;27.17;;;12.20;;
74656;SDS011;63185;45.642;13.764;2023-02-25T11:04:47;24.48;;;11.00;;
74656;SDS011;63185;45.642;13.764;2023-02-25T11:09:48;27.40;;;11.23;;
74656;SDS011;63185;45.642;13.764;2023-02-25T11:12:58;24.08;;;10.40;;
74656;SDS011;63185;45.642;13.764;2023-02-25T11:18:16;24.10;;;9.35;;
74656;SDS011;63185;45.642;13.764;2023-02-25T11:20:57;23.42;;;9.95;;
74656;SDS011;63185;45.642;13.764;2023-02-25T11:23:30;20.67;;;8.13;;
74656;SDS011;63185;45.642;13.764;2023-02-25T11:26:02;28.40;;;10.15;;
74656;SDS011;63185;45.642;13.764;2023-02-25T11:28:36;17.90;;;9.90;;
74656;SDS011;63185;45.642;13.764;2023-02-25T11:31:19;19.73;;;9.40;;
74656;SDS011;63185;45.642;13.764;2023-02-25T11:34:11;24.42;;;9.38;;
74656;SDS011;63185;45.642;13.764;2023-02-25T11:36:38;21.38;;;9.98;;
74656;SDS011;63185;45.642;13.764;2023-02-25T11:39:24;18.30;;;9.18;;
74656;SDS011;63185;45.642;13.764;2023-02-25T11:41:53;30.85;;;10.00;;
74656;SDS011;63185;45.642;13.764;2023-02-25T11:44:28;26.73;;;9.57;;
74656;SDS011;63185;45.642;13.764;2023-02-25T11:46:58;26.02;;;10.88;;
74656;SDS011;63185;45.642;13.764;2023-02-25T11:54:48;26.73;;;11.40;;
74656;SDS011;63185;45.642;13.764;2023-02-25T12:00:23;26.30;;;10.90;;
74656;SDS011;63185;45.642;13.764;2023-02-25T12:06:25;26.67;;;10.32;;
74656;SDS011;63185;45.642;13.764;2023-02-25T12:27:43;46.42;;;26.25;;
74656;SDS011;63185;45.642;13.764;2023-02-25T12:35:26;113.53;;;58.15;;
74656;SDS011;63185;45.642;13.764;2023-02-25T12:38:22;33.10;;;16.97;;
74656;SDS011;63185;45.642;13.764;2023-02-25T12:55:14;42.15;;;19.85;;
74656;SDS011;63185;45.642;13.764;2023-02-25T13:27:44;36.55;;;19.55;;
74656;SDS011;63185;45.642;13.764;2023-02-25T13:30:47;37.25;;;19.83;;
74656;SDS011;63185;45.642;13.764;2023-02-25T13:36:09;41.40;;;17.92;;
74656;SDS011;63185;45.642;13.764;2023-02-25T13:55:32;47.67;;;20.30;;
74656;SDS011;63185;45.642;13.764;2023-02-25T14:07:21;53.72;;;20.13;;
74656;SDS011;63185;45.642;13.764;2023-02-25T14:10:11;48.65;;;20.08;;
74656;SDS011;63185;45.642;13.764;2023-02-25T14:18:26;40.72;;;18.88;;
74656;SDS011;63185;45.642;13.764;2023-02-25T14:24:27;43.50;;;19.30;;
74656;SDS011;63185;45.642;13.764;2023-02-25T14:32:56;33.38;;;17.27;;
74656;SDS011;63185;45.642;13.764;2023-02-25T14:35:42;33.55;;;16.58;;
74656;SDS011;63185;45.642;13.764;2023-02-25T14:44:03;44.17;;;16.10;;
74656;SDS011;63185;45.642;13.764;2023-02-25T14:46:39;38.42;;;16.08;;
74656;SDS011;63185;45.642;13.764;2023-02-25T14:49:22;37.33;;;16.88;;
74656;SDS011;63185;45.642;13.764;2023-02-25T15:03:01;42.45;;;19.10;;
74656;SDS011;63185;45.642;13.764;2023-02-25T15:11:29;42.08;;;18.48;;
74656;SDS011;63185;45.642;13.764;2023-02-25T15:17:05;39.33;;;17.98;;
74656;SDS011;63185;45.642;13.764;2023-02-25T15:22:28;44.90;;;17.42;;
74656;SDS011;63185;45.642;13.764;2023-02-25T15:27:52;39.80;;;16.85;;
74656;SDS011;63185;45.642;13.764;2023-02-25T15:30:20;44.70;;;18.10;;
74656;SDS011;63185;45.642;13.764;2023-02-25T15:38:05;39.20;;;18.10;;
74656;SDS011;63185;45.642;13.764;2023-02-25T15:40:42;48.85;;;18.33;;
74656;SDS011;63185;45.642;13.764;2023-02-25T15:48:32;38.22;;;18.85;;
74656;SDS011;63185;45.642;13.764;2023-02-25T15:50:59;42.80;;;18.80;;
74656;SDS011;63185;45.642;13.764;2023-02-25T16:06:39;41.63;;;18.80;;
74656;SDS011;63185;45.642;13.764;2023-02-25T16:11:31;37.05;;;18.27;;
74656;SDS011;63185;45.642;13.764;2023-02-25T16:14:05;40.40;;;17.60;;
74656;SDS011;63185;45.642;13.764;2023-02-25T16:16:49;40.60;;;17.15;;
74656;SDS011;63185;45.642;13.764;2023-02-25T16:19:21;41.92;;;17.58;;
74656;SDS011;63185;45.642;13.764;2023-02-25T16:24:58;37.70;;;16.02;;
74656;SDS011;63185;45.642;13.764;2023-02-25T16:30:29;46.92;;;20.25;;
74656;SDS011;63185;45.642;13.764;2023-02-25T16:36:13;42.42;;;19.10;;
74656;SDS011;63185;45.642;13.764;2023-02-25T16:39:01;45.92;;;19.55;;
74656;SDS011;63185;45.642;13.764;2023-02-25T16:41:29;43.78;;;18.77;;
74656;SDS011;63185;45.642;13.764;2023-02-25T16:43:55;43.05;;;18.67;;
74656;SDS011;63185;45.642;13.764;2023-02-25T16:46:26;39.53;;;18.35;;
74656;SDS011;63185;45.642;13.764;2023-02-25T16:48:57;44.42;;;18.45;;
74656;SDS011;63185;45.642;13.764;2023-02-25T16:51:33;45.28;;;18.58;;
74656;SDS011;63185;45.642;13.764;2023-02-25T16:54:15;38.20;;;19.20;;
74656;SDS011;63185;45.642;13.764;2023-02-25T16:56:53;46.35;;;18.00;;
74656;SDS011;63185;45.642;13.764;2023-02-25T16:59:22;42.10;;;19.17;;
74656;SDS011;63185;45.642;13.764;2023-02-25T17:01:56;44.13;;;18.38;;
74656;SDS011;63185;45.642;13.764;2023-02-25T17:04:45;43.95;;;18.77;;
74656;SDS011;63185;45.642;13.764;2023-02-25T17:07:13;49.67;;;19.90;;
74656;SDS011;63185;45.642;13.764;2023-02-25T17:09:44;43.28;;;18.75;;
74656;SDS011;63185;45.642;13.764;2023-02-25T17:12:19;45.40;;;18.83;;
74656;SDS011;63185;45.642;13.764;2023-02-25T17:14:56;39.65;;;17.55;;
74656;SDS011;63185;45.642;13.764;2023-02-25T17:17:26;40.30;;;19.63;;
74656;SDS011;63185;45.642;13.764;2023-02-25T17:19:57;38.58;;;18.48;;
74656;SDS011;63185;45.642;13.764;2023-02-25T17:22:24;38.63;;;18.05;;
74656;SDS011;63185;45.642;13.764;2023-02-25T17:24:51;42.97;;;18.20;;
74656;SDS011;63185;45.642;13.764;2023-02-25T17:27:20;51.33;;;19.77;;
74656;SDS011;63185;45.642;13.764;2023-02-25T17:29:47;40.88;;;18.55;;
74656;SDS011;63185;45.642;13.764;2023-02-25T17:32:23;52.67;;;18.67;;
74656;SDS011;63185;45.642;13.764;2023-02-25T17:34:52;41.65;;;19.02;;
74656;SDS011;63185;45.642;13.764;2023-02-25T17:37:21;42.25;;;18.92;;
74656;SDS011;63185;45.642;13.764;2023-02-25T17:39:50;42.97;;;18.77;;
74656;SDS011;63185;45.642;13.764;2023-02-25T17:42:35;43.38;;;18.10;;
74656;SDS011;63185;45.642;13.764;2023-02-25T17:45:05;39.78;;;18.17;;
74656;SDS011;63185;45.642;13.764;2023-02-25T17:47:51;44.90;;;20.25;;
74656;SDS011;63185;45.642;13.764;2023-02-25T17:52:55;42.45;;;18.77;;
74656;SDS011;63185;45.642;13.764;2023-02-25T17:55:43;39.60;;;18.52;;
74656;SDS011;63185;45.642;13.764;2023-02-25T17:58:13;42.13;;;18.50;;
74656;SDS011;63185;45.642;13.764;2023-02-25T18:00:59;45.97;;;19.13;;
74656;SDS011;63185;45.642;13.764;2023-02-25T18:03:29;43.50;;;18.90;;
74656;SDS011;63185;45.642;13.764;2023-02-25T18:06:24;47.13;;;19.83;;
74656;SDS011;63185;45.642;13.764;2023-02-25T18:08:52;41.53;;;20.33;;
74656;SDS011;63185;45.642;13.764;2023-02-25T18:13:53;52.13;;;21.08;;
74656;SDS011;63185;45.642;13.764;2023-02-25T18:18:49;47.28;;;21.20;;
74656;SDS011;63185;45.642;13.764;2023-02-25T18:21:15;45.05;;;21.38;;
74656;SDS011;63185;45.642;13.764;2023-02-25T18:23:41;44.40;;;21.48;;
74656;SDS011;63185;45.642;13.764;2023-02-25T18:28:42;45.00;;;21.15;;
74656;SDS011;63185;45.642;13.764;2023-02-25T18:31:09;46.45;;;22.60;;
74656;SDS011;63185;45.642;13.764;2023-02-25T18:33:35;45.65;;;21.63;;
74656;SDS011;63185;45.642;13.764;2023-02-25T18:36:03;47.38;;;22.27;;
74656;SDS011;63185;45.642;13.764;2023-02-25T18:38:30;43.53;;;21.80;;
74656;SDS011;63185;45.642;13.764;2023-02-25T18:40:56;47.22;;;23.00;;
74656;SDS011;63185;45.642;13.764;2023-02-25T18:43:23;55.00;;;23.02;;
74656;SDS011;63185;45.642;13.764;2023-02-25T18:45:56;52.53;;;22.05;;